sensor_id;sensor_type;location;lat;lon;timestamp;P1;durP1;ratioP1;P2;durP2;ratioP2
68176;SDS011;56478;50.982;7.032;2024-03-22T00:00:40;20.67;;;14.07;;
68176;SDS011;56478;50.982;7.032;2024-03-22T00:03:06;24.00;;;14.50;;
68176;SDS011;56478;50.982;7.032;2024-03-22T00:05:31;24.02;;;14.10;;
68176;SDS011;56478;50.982;7.032;2024-03-22T00:07:57;23.08;;;14.40;;
68176;SDS011;56478;50.982;7.032;2024-03-22T00:10:22;21.48;;;13.75;;
68176;SDS011;56478;50.982;7.032;2024-03-22T00:12:51;21.80;;;14.15;;
68176;SDS011;56478;50.982;7.032;2024-03-22T00:15:17;21.08;;;13.02;;
68176;SDS011;56478;50.982;7.032;2024-03-22T00:17:43;22.35;;;14.32;;
68176;SDS011;56478;50.982;7.032;2024-03-22T00:20:09;22.58;;;13.43;;
68176;SDS011;56478;50.982;7.032;2024-03-22T00:22:35;24.13;;;14.60;;
68176;SDS011;56478;50.982;7.032;2024-03-22T00:25:01;23.90;;;14.38;;
68176;SDS011;56478;50.982;7.032;2024-03-22T00:27:26;18.98;;;12.82;;
68176;SDS011;56478;50.982;7.032;2024-03-22T00:29:52;21.90;;;14.07;;
68176;SDS011;56478;50.982;7.032;2024-03-22T00:32:17;23.30;;;13.70;;
68176;SDS011;56478;50.982;7.032;2024-03-22T00:34:43;23.48;;;13.95;;
68176;SDS011;56478;50.982;7.032;2024-03-22T00:37:09;25.30;;;13.98;;
68176;SDS011;56478;50.982;7.032;2024-03-22T00:39:34;21.77;;;13.93;;
68176;SDS011;56478;50.982;7.032;2024-03-22T00:42:00;22.33;;;13.68;;
68176;SDS011;56478;50.982;7.032;2024-03-22T00:44:26;25.58;;;13.98;;
68176;SDS011;56478;50.982;7.032;2024-03-22T00:46:52;21.42;;;13.50;;
68176;SDS011;56478;50.982;7.032;2024-03-22T00:49:17;20.85;;;13.55;;
68176;SDS011;56478;50.982;7.032;2024-03-22T00:51:43;19.75;;;13.85;;
68176;SDS011;56478;50.982;7.032;2024-03-22T00:54:09;23.58;;;14.00;;
68176;SDS011;56478;50.982;7.032;2024-03-22T00:56:35;24.33;;;14.20;;
68176;SDS011;56478;50.982;7.032;2024-03-22T00:59:01;22.15;;;14.23;;
68176;SDS011;56478;50.982;7.032;2024-03-22T01:01:26;22.98;;;13.52;;
68176;SDS011;56478;50.982;7.032;2024-03-22T01:03:52;23.20;;;13.57;;
68176;SDS011;56478;50.982;7.032;2024-03-22T01:06:17;23.00;;;14.10;;
68176;SDS011;56478;50.982;7.032;2024-03-22T01:08:48;20.60;;;13.55;;
68176;SDS011;56478;50.982;7.032;2024-03-22T01:11:15;20.58;;;13.32;;
68176;SDS011;56478;50.982;7.032;2024-03-22T01:13:40;23.48;;;14.63;;
68176;SDS011;56478;50.982;7.032;2024-03-22T01:16:06;21.83;;;14.00;;
68176;SDS011;56478;50.982;7.032;2024-03-22T01:18:35;24.25;;;14.35;;
68176;SDS011;56478;50.982;7.032;2024-03-22T01:23:30;21.35;;;13.05;;
68176;SDS011;56478;50.982;7.032;2024-03-22T01:25:55;20.02;;;12.70;;
68176;SDS011;56478;50.982;7.032;2024-03-22T01:28:21;16.65;;;12.65;;
68176;SDS011;56478;50.982;7.032;2024-03-22T01:30:47;18.23;;;12.88;;
68176;SDS011;56478;50.982;7.032;2024-03-22T01:33:12;22.17;;;13.60;;
68176;SDS011;56478;50.982;7.032;2024-03-22T01:35:38;20.08;;;13.88;;
68176;SDS011;56478;50.982;7.032;2024-03-22T01:38:03;22.50;;;13.20;;
68176;SDS011;56478;50.982;7.032;2024-03-22T01:40:29;24.27;;;14.23;;
68176;SDS011;56478;50.982;7.032;2024-03-22T01:42:58;24.38;;;14.48;;
68176;SDS011;56478;50.982;7.032;2024-03-22T01:45:25;22.52;;;13.73;;
68176;SDS011;56478;50.982;7.032;2024-03-22T01:47:53;22.55;;;13.98;;
68176;SDS011;56478;50.982;7.032;2024-03-22T01:50:23;25.00;;;13.85;;
68176;SDS011;56478;50.982;7.032;2024-03-22T01:52:49;20.88;;;13.40;;
68176;SDS011;56478;50.982;7.032;2024-03-22T01:55:14;21.42;;;13.05;;
68176;SDS011;56478;50.982;7.032;2024-03-22T01:57:40;19.35;;;13.45;;
68176;SDS011;56478;50.982;7.032;2024-03-22T02:00:07;24.73;;;13.20;;
68176;SDS011;56478;50.982;7.032;2024-03-22T02:02:35;21.63;;;13.13;;
68176;SDS011;56478;50.982;7.032;2024-03-22T02:07:46;20.92;;;13.40;;
68176;SDS011;56478;50.982;7.032;2024-03-22T02:10:12;22.85;;;13.77;;
68176;SDS011;56478;50.982;7.032;2024-03-22T02:12:39;21.17;;;13.55;;
68176;SDS011;56478;50.982;7.032;2024-03-22T02:15:04;27.30;;;14.57;;
68176;SDS011;56478;50.982;7.032;2024-03-22T02:17:32;24.25;;;13.70;;
68176;SDS011;56478;50.982;7.032;2024-03-22T02:19:58;22.10;;;13.52;;
68176;SDS011;56478;50.982;7.032;2024-03-22T02:22:24;21.00;;;13.55;;
68176;SDS011;56478;50.982;7.032;2024-03-22T02:24:51;22.00;;;13.57;;
68176;SDS011;56478;50.982;7.032;2024-03-22T02:27:16;22.27;;;13.63;;
68176;SDS011;56478;50.982;7.032;2024-03-22T02:29:42;19.45;;;12.98;;
68176;SDS011;56478;50.982;7.032;2024-03-22T02:32:07;18.90;;;12.52;;
68176;SDS011;56478;50.982;7.032;2024-03-22T02:34:33;23.08;;;13.13;;
68176;SDS011;56478;50.982;7.032;2024-03-22T02:36:58;25.40;;;12.60;;
68176;SDS011;56478;50.982;7.032;2024-03-22T02:39:24;23.33;;;13.13;;
68176;SDS011;56478;50.982;7.032;2024-03-22T02:41:50;21.58;;;13.05;;
68176;SDS011;56478;50.982;7.032;2024-03-22T02:44:16;20.48;;;12.40;;
68176;SDS011;56478;50.982;7.032;2024-03-22T02:46:41;20.90;;;12.57;;
68176;SDS011;56478;50.982;7.032;2024-03-22T02:49:07;18.33;;;12.23;;
68176;SDS011;56478;50.982;7.032;2024-03-22T02:51:33;16.70;;;11.68;;
68176;SDS011;56478;50.982;7.032;2024-03-22T02:53:58;18.33;;;12.02;;
68176;SDS011;56478;50.982;7.032;2024-03-22T02:56:24;20.48;;;12.23;;
68176;SDS011;56478;50.982;7.032;2024-03-22T02:58:49;18.65;;;11.50;;
68176;SDS011;56478;50.982;7.032;2024-03-22T03:01:15;16.33;;;11.23;;
68176;SDS011;56478;50.982;7.032;2024-03-22T03:03:41;16.73;;;11.45;;
68176;SDS011;56478;50.982;7.032;2024-03-22T03:06:06;19.00;;;11.57;;
68176;SDS011;56478;50.982;7.032;2024-03-22T03:08:32;21.52;;;11.75;;
68176;SDS011;56478;50.982;7.032;2024-03-22T03:10:57;18.83;;;11.77;;
68176;SDS011;56478;50.982;7.032;2024-03-22T03:13:23;19.67;;;12.07;;
68176;SDS011;56478;50.982;7.032;2024-03-22T03:15:49;17.13;;;11.00;;
68176;SDS011;56478;50.982;7.032;2024-03-22T03:18:14;21.13;;;11.63;;
68176;SDS011;56478;50.982;7.032;2024-03-22T03:20:40;17.10;;;11.60;;
68176;SDS011;56478;50.982;7.032;2024-03-22T03:23:05;19.92;;;11.80;;
68176;SDS011;56478;50.982;7.032;2024-03-22T03:25:31;16.83;;;11.10;;
68176;SDS011;56478;50.982;7.032;2024-03-22T03:27:59;19.10;;;10.98;;
68176;SDS011;56478;50.982;7.032;2024-03-22T03:30:24;19.40;;;11.73;;
68176;SDS011;56478;50.982;7.032;2024-03-22T03:32:51;17.58;;;12.43;;
68176;SDS011;56478;50.982;7.032;2024-03-22T03:35:16;19.05;;;12.00;;
68176;SDS011;56478;50.982;7.032;2024-03-22T03:37:42;17.77;;;11.23;;
68176;SDS011;56478;50.982;7.032;2024-03-22T03:40:08;17.30;;;11.27;;
68176;SDS011;56478;50.982;7.032;2024-03-22T03:42:34;20.05;;;12.07;;
68176;SDS011;56478;50.982;7.032;2024-03-22T03:44:59;16.10;;;11.05;;
68176;SDS011;56478;50.982;7.032;2024-03-22T03:47:25;16.30;;;11.10;;
68176;SDS011;56478;50.982;7.032;2024-03-22T03:49:50;16.67;;;10.52;;
68176;SDS011;56478;50.982;7.032;2024-03-22T03:52:17;16.90;;;11.15;;
68176;SDS011;56478;50.982;7.032;2024-03-22T03:54:43;20.95;;;11.48;;
68176;SDS011;56478;50.982;7.032;2024-03-22T03:57:08;19.15;;;11.52;;
68176;SDS011;56478;50.982;7.032;2024-03-22T03:59:34;16.77;;;10.48;;
68176;SDS011;56478;50.982;7.032;2024-03-22T04:01:59;18.55;;;11.00;;
68176;SDS011;56478;50.982;7.032;2024-03-22T04:04:25;14.82;;;10.55;;
68176;SDS011;56478;50.982;7.032;2024-03-22T04:06:51;16.98;;;10.52;;
68176;SDS011;56478;50.982;7.032;2024-03-22T04:09:16;18.00;;;11.43;;
68176;SDS011;56478;50.982;7.032;2024-03-22T04:11:42;19.30;;;10.98;;
68176;SDS011;56478;50.982;7.032;2024-03-22T04:14:09;17.65;;;10.98;;
68176;SDS011;56478;50.982;7.032;2024-03-22T04:16:34;17.88;;;10.68;;
68176;SDS011;56478;50.982;7.032;2024-03-22T04:19:00;19.88;;;11.07;;
68176;SDS011;56478;50.982;7.032;2024-03-22T04:21:25;18.00;;;10.57;;
68176;SDS011;56478;50.982;7.032;2024-03-22T04:23:51;15.23;;;10.07;;
68176;SDS011;56478;50.982;7.032;2024-03-22T04:26:16;19.83;;;11.27;;
68176;SDS011;56478;50.982;7.032;2024-03-22T04:28:42;15.38;;;10.35;;
68176;SDS011;56478;50.982;7.032;2024-03-22T04:31:08;16.10;;;10.73;;
68176;SDS011;56478;50.982;7.032;2024-03-22T04:33:34;18.48;;;10.63;;
68176;SDS011;56478;50.982;7.032;2024-03-22T04:36:00;15.23;;;10.13;;
68176;SDS011;56478;50.982;7.032;2024-03-22T04:38:26;19.75;;;10.85;;
68176;SDS011;56478;50.982;7.032;2024-03-22T04:40:53;16.08;;;9.85;;
68176;SDS011;56478;50.982;7.032;2024-03-22T04:43:19;12.90;;;8.63;;
68176;SDS011;56478;50.982;7.032;2024-03-22T04:45:46;16.73;;;10.00;;
68176;SDS011;56478;50.982;7.032;2024-03-22T04:48:12;13.73;;;9.18;;
68176;SDS011;56478;50.982;7.032;2024-03-22T04:50:39;15.77;;;9.88;;
68176;SDS011;56478;50.982;7.032;2024-03-22T04:53:04;18.95;;;10.05;;
68176;SDS011;56478;50.982;7.032;2024-03-22T04:55:30;16.95;;;10.18;;
68176;SDS011;56478;50.982;7.032;2024-03-22T04:57:57;17.05;;;10.73;;
68176;SDS011;56478;50.982;7.032;2024-03-22T05:00:23;16.02;;;9.93;;
68176;SDS011;56478;50.982;7.032;2024-03-22T05:02:50;15.88;;;10.07;;
68176;SDS011;56478;50.982;7.032;2024-03-22T05:05:16;18.63;;;10.35;;
68176;SDS011;56478;50.982;7.032;2024-03-22T05:07:41;18.15;;;9.82;;
68176;SDS011;56478;50.982;7.032;2024-03-22T05:10:07;16.38;;;9.90;;
68176;SDS011;56478;50.982;7.032;2024-03-22T05:12:34;16.88;;;9.95;;
68176;SDS011;56478;50.982;7.032;2024-03-22T05:15:01;14.85;;;10.25;;
68176;SDS011;56478;50.982;7.032;2024-03-22T05:17:27;16.02;;;9.25;;
68176;SDS011;56478;50.982;7.032;2024-03-22T05:19:54;14.75;;;9.38;;
68176;SDS011;56478;50.982;7.032;2024-03-22T05:22:19;14.63;;;9.52;;
68176;SDS011;56478;50.982;7.032;2024-03-22T05:24:45;13.25;;;9.60;;
68176;SDS011;56478;50.982;7.032;2024-03-22T05:27:11;13.55;;;9.07;;
68176;SDS011;56478;50.982;7.032;2024-03-22T05:29:37;16.15;;;9.73;;
68176;SDS011;56478;50.982;7.032;2024-03-22T05:32:03;18.25;;;9.95;;
68176;SDS011;56478;50.982;7.032;2024-03-22T05:34:29;16.58;;;9.82;;
68176;SDS011;56478;50.982;7.032;2024-03-22T05:36:55;15.48;;;9.43;;
68176;SDS011;56478;50.982;7.032;2024-03-22T05:39:20;15.05;;;9.38;;
68176;SDS011;56478;50.982;7.032;2024-03-22T05:41:46;15.75;;;10.40;;
68176;SDS011;56478;50.982;7.032;2024-03-22T05:44:11;14.75;;;9.75;;
68176;SDS011;56478;50.982;7.032;2024-03-22T05:46:37;16.35;;;10.20;;
68176;SDS011;56478;50.982;7.032;2024-03-22T05:49:02;14.70;;;9.68;;
68176;SDS011;56478;50.982;7.032;2024-03-22T05:51:28;16.98;;;10.27;;
68176;SDS011;56478;50.982;7.032;2024-03-22T05:53:56;17.23;;;10.18;;
68176;SDS011;56478;50.982;7.032;2024-03-22T05:56:22;16.60;;;9.52;;
68176;SDS011;56478;50.982;7.032;2024-03-22T05:58:47;16.13;;;9.68;;
68176;SDS011;56478;50.982;7.032;2024-03-22T06:01:13;13.80;;;9.80;;
68176;SDS011;56478;50.982;7.032;2024-03-22T06:03:39;12.63;;;9.52;;
68176;SDS011;56478;50.982;7.032;2024-03-22T06:06:04;15.93;;;9.80;;
68176;SDS011;56478;50.982;7.032;2024-03-22T06:08:30;15.00;;;9.73;;
68176;SDS011;56478;50.982;7.032;2024-03-22T06:11:00;16.02;;;9.63;;
68176;SDS011;56478;50.982;7.032;2024-03-22T06:13:26;13.63;;;9.40;;
68176;SDS011;56478;50.982;7.032;2024-03-22T06:15:51;18.55;;;10.15;;
68176;SDS011;56478;50.982;7.032;2024-03-22T06:18:17;14.60;;;9.45;;
68176;SDS011;56478;50.982;7.032;2024-03-22T06:20:43;16.45;;;10.35;;
68176;SDS011;56478;50.982;7.032;2024-03-22T06:23:08;15.88;;;9.57;;
68176;SDS011;56478;50.982;7.032;2024-03-22T06:25:35;15.05;;;9.98;;
68176;SDS011;56478;50.982;7.032;2024-03-22T06:28:01;16.60;;;9.55;;
68176;SDS011;56478;50.982;7.032;2024-03-22T06:30:26;16.83;;;9.30;;
68176;SDS011;56478;50.982;7.032;2024-03-22T06:32:54;14.98;;;9.70;;
68176;SDS011;56478;50.982;7.032;2024-03-22T06:35:20;14.50;;;9.05;;
68176;SDS011;56478;50.982;7.032;2024-03-22T06:37:47;16.55;;;9.60;;
68176;SDS011;56478;50.982;7.032;2024-03-22T06:40:14;15.75;;;10.02;;
68176;SDS011;56478;50.982;7.032;2024-03-22T06:42:40;16.65;;;9.60;;
68176;SDS011;56478;50.982;7.032;2024-03-22T06:45:06;13.52;;;9.30;;
68176;SDS011;56478;50.982;7.032;2024-03-22T06:47:32;14.77;;;9.65;;
68176;SDS011;56478;50.982;7.032;2024-03-22T06:49:57;13.60;;;9.60;;
68176;SDS011;56478;50.982;7.032;2024-03-22T06:52:23;12.75;;;9.18;;
68176;SDS011;56478;50.982;7.032;2024-03-22T06:54:49;14.57;;;9.75;;
68176;SDS011;56478;50.982;7.032;2024-03-22T06:57:14;14.13;;;9.40;;
68176;SDS011;56478;50.982;7.032;2024-03-22T06:59:40;14.60;;;9.15;;
68176;SDS011;56478;50.982;7.032;2024-03-22T07:02:05;12.85;;;9.10;;
68176;SDS011;56478;50.982;7.032;2024-03-22T07:04:31;14.90;;;9.52;;
68176;SDS011;56478;50.982;7.032;2024-03-22T07:06:56;13.25;;;9.00;;
68176;SDS011;56478;50.982;7.032;2024-03-22T07:09:22;17.50;;;8.63;;
68176;SDS011;56478;50.982;7.032;2024-03-22T07:11:47;15.63;;;8.68;;
68176;SDS011;56478;50.982;7.032;2024-03-22T07:14:13;16.23;;;9.02;;
68176;SDS011;56478;50.982;7.032;2024-03-22T07:16:39;13.88;;;9.00;;
68176;SDS011;56478;50.982;7.032;2024-03-22T07:19:04;16.50;;;9.60;;
68176;SDS011;56478;50.982;7.032;2024-03-22T07:21:30;14.02;;;9.13;;
68176;SDS011;56478;50.982;7.032;2024-03-22T07:23:56;13.30;;;8.85;;
68176;SDS011;56478;50.982;7.032;2024-03-22T07:26:22;12.02;;;9.05;;
68176;SDS011;56478;50.982;7.032;2024-03-22T07:28:47;17.65;;;9.38;;
68176;SDS011;56478;50.982;7.032;2024-03-22T07:31:13;13.23;;;9.23;;
68176;SDS011;56478;50.982;7.032;2024-03-22T07:33:39;12.48;;;8.65;;
68176;SDS011;56478;50.982;7.032;2024-03-22T07:36:05;13.95;;;9.23;;
68176;SDS011;56478;50.982;7.032;2024-03-22T07:38:31;16.10;;;9.55;;
68176;SDS011;56478;50.982;7.032;2024-03-22T07:40:57;13.60;;;9.30;;
68176;SDS011;56478;50.982;7.032;2024-03-22T07:43:22;13.90;;;9.23;;
68176;SDS011;56478;50.982;7.032;2024-03-22T07:45:48;11.85;;;9.18;;
68176;SDS011;56478;50.982;7.032;2024-03-22T07:48:14;14.57;;;10.02;;
68176;SDS011;56478;50.982;7.032;2024-03-22T07:50:39;15.50;;;9.48;;
68176;SDS011;56478;50.982;7.032;2024-03-22T07:53:05;13.45;;;9.63;;
68176;SDS011;56478;50.982;7.032;2024-03-22T07:55:30;15.10;;;9.40;;
68176;SDS011;56478;50.982;7.032;2024-03-22T07:57:56;13.48;;;9.55;;
68176;SDS011;56478;50.982;7.032;2024-03-22T08:00:23;14.40;;;9.02;;
68176;SDS011;56478;50.982;7.032;2024-03-22T08:02:50;12.50;;;8.95;;
68176;SDS011;56478;50.982;7.032;2024-03-22T08:05:16;17.08;;;10.35;;
68176;SDS011;56478;50.982;7.032;2024-03-22T08:07:42;15.35;;;9.07;;
68176;SDS011;56478;50.982;7.032;2024-03-22T08:10:08;15.25;;;10.00;;
68176;SDS011;56478;50.982;7.032;2024-03-22T08:12:34;16.23;;;9.63;;
68176;SDS011;56478;50.982;7.032;2024-03-22T08:15:00;17.10;;;10.40;;
68176;SDS011;56478;50.982;7.032;2024-03-22T08:17:25;15.65;;;10.00;;
68176;SDS011;56478;50.982;7.032;2024-03-22T08:19:51;16.50;;;10.10;;
68176;SDS011;56478;50.982;7.032;2024-03-22T08:22:17;13.65;;;9.93;;
68176;SDS011;56478;50.982;7.032;2024-03-22T08:24:42;17.95;;;10.60;;
68176;SDS011;56478;50.982;7.032;2024-03-22T08:27:08;15.98;;;10.55;;
68176;SDS011;56478;50.982;7.032;2024-03-22T08:29:33;15.25;;;9.90;;
68176;SDS011;56478;50.982;7.032;2024-03-22T08:31:59;15.30;;;10.40;;
68176;SDS011;56478;50.982;7.032;2024-03-22T08:34:24;14.85;;;10.35;;
68176;SDS011;56478;50.982;7.032;2024-03-22T08:36:50;19.95;;;10.30;;
68176;SDS011;56478;50.982;7.032;2024-03-22T08:39:15;14.70;;;10.65;;
68176;SDS011;56478;50.982;7.032;2024-03-22T08:41:41;16.08;;;10.38;;
68176;SDS011;56478;50.982;7.032;2024-03-22T08:44:06;17.60;;;11.20;;
68176;SDS011;56478;50.982;7.032;2024-03-22T08:46:32;13.82;;;10.98;;
68176;SDS011;56478;50.982;7.032;2024-03-22T08:48:58;16.45;;;10.90;;
68176;SDS011;56478;50.982;7.032;2024-03-22T08:51:23;17.65;;;11.45;;
68176;SDS011;56478;50.982;7.032;2024-03-22T08:53:49;19.27;;;10.60;;
68176;SDS011;56478;50.982;7.032;2024-03-22T08:56:15;17.95;;;10.68;;
68176;SDS011;56478;50.982;7.032;2024-03-22T08:58:40;13.57;;;9.98;;
68176;SDS011;56478;50.982;7.032;2024-03-22T09:01:06;14.07;;;10.27;;
68176;SDS011;56478;50.982;7.032;2024-03-22T09:03:34;16.40;;;9.93;;
68176;SDS011;56478;50.982;7.032;2024-03-22T09:06:00;12.80;;;9.63;;
68176;SDS011;56478;50.982;7.032;2024-03-22T09:08:26;14.73;;;9.48;;
68176;SDS011;56478;50.982;7.032;2024-03-22T09:10:54;15.43;;;9.35;;
68176;SDS011;56478;50.982;7.032;2024-03-22T09:13:19;11.45;;;8.38;;
68176;SDS011;56478;50.982;7.032;2024-03-22T09:15:45;14.32;;;8.60;;
68176;SDS011;56478;50.982;7.032;2024-03-22T09:18:10;12.27;;;7.85;;
68176;SDS011;56478;50.982;7.032;2024-03-22T09:20:36;12.43;;;7.00;;
68176;SDS011;56478;50.982;7.032;2024-03-22T09:23:01;8.80;;;6.68;;
68176;SDS011;56478;50.982;7.032;2024-03-22T09:25:27;8.82;;;6.55;;
68176;SDS011;56478;50.982;7.032;2024-03-22T09:27:53;7.47;;;6.15;;
68176;SDS011;56478;50.982;7.032;2024-03-22T09:30:18;7.95;;;5.60;;
68176;SDS011;56478;50.982;7.032;2024-03-22T09:32:44;7.68;;;5.63;;
68176;SDS011;56478;50.982;7.032;2024-03-22T09:35:10;6.68;;;5.40;;
68176;SDS011;56478;50.982;7.032;2024-03-22T09:37:36;6.68;;;5.57;;
68176;SDS011;56478;50.982;7.032;2024-03-22T09:40:02;5.20;;;4.65;;
68176;SDS011;56478;50.982;7.032;2024-03-22T09:42:32;6.60;;;5.18;;
68176;SDS011;56478;50.982;7.032;2024-03-22T09:44:58;9.07;;;5.30;;
68176;SDS011;56478;50.982;7.032;2024-03-22T09:47:24;7.18;;;5.00;;
68176;SDS011;56478;50.982;7.032;2024-03-22T09:49:51;7.43;;;5.00;;
68176;SDS011;56478;50.982;7.032;2024-03-22T09:52:18;6.70;;;4.88;;
68176;SDS011;56478;50.982;7.032;2024-03-22T09:54:45;6.32;;;4.53;;
68176;SDS011;56478;50.982;7.032;2024-03-22T09:57:14;6.20;;;4.28;;
68176;SDS011;56478;50.982;7.032;2024-03-22T09:59:44;9.68;;;4.50;;
68176;SDS011;56478;50.982;7.032;2024-03-22T10:02:10;8.10;;;4.70;;
68176;SDS011;56478;50.982;7.032;2024-03-22T10:04:40;8.00;;;4.63;;
68176;SDS011;56478;50.982;7.032;2024-03-22T10:07:06;8.40;;;4.72;;
68176;SDS011;56478;50.982;7.032;2024-03-22T10:09:33;6.63;;;4.20;;
68176;SDS011;56478;50.982;7.032;2024-03-22T10:11:59;7.38;;;4.05;;
68176;SDS011;56478;50.982;7.032;2024-03-22T10:14:24;8.48;;;4.50;;
68176;SDS011;56478;50.982;7.032;2024-03-22T10:16:53;5.13;;;4.60;;
68176;SDS011;56478;50.982;7.032;2024-03-22T10:19:22;5.43;;;4.82;;
68176;SDS011;56478;50.982;7.032;2024-03-22T10:24:27;5.93;;;4.53;;
68176;SDS011;56478;50.982;7.032;2024-03-22T10:26:53;5.25;;;4.20;;
68176;SDS011;56478;50.982;7.032;2024-03-22T10:29:19;4.43;;;4.03;;
68176;SDS011;56478;50.982;7.032;2024-03-22T10:31:45;6.88;;;4.60;;
68176;SDS011;56478;50.982;7.032;2024-03-22T10:34:13;11.85;;;5.05;;
68176;SDS011;56478;50.982;7.032;2024-03-22T10:36:39;7.35;;;4.68;;
68176;SDS011;56478;50.982;7.032;2024-03-22T10:39:05;10.88;;;4.57;;
68176;SDS011;56478;50.982;7.032;2024-03-22T10:41:31;6.22;;;4.88;;
68176;SDS011;56478;50.982;7.032;2024-03-22T10:43:57;6.30;;;4.68;;
68176;SDS011;56478;50.982;7.032;2024-03-22T10:46:23;6.93;;;5.00;;
68176;SDS011;56478;50.982;7.032;2024-03-22T10:48:54;8.95;;;5.30;;
68176;SDS011;56478;50.982;7.032;2024-03-22T10:51:21;6.72;;;4.80;;
68176;SDS011;56478;50.982;7.032;2024-03-22T10:53:50;7.32;;;5.05;;
68176;SDS011;56478;50.982;7.032;2024-03-22T10:56:19;9.60;;;5.20;;
68176;SDS011;56478;50.982;7.032;2024-03-22T10:58:47;7.30;;;4.72;;
68176;SDS011;56478;50.982;7.032;2024-03-22T11:01:24;7.82;;;5.28;;
68176;SDS011;56478;50.982;7.032;2024-03-22T11:03:51;6.68;;;5.88;;
68176;SDS011;56478;50.982;7.032;2024-03-22T11:06:19;10.45;;;5.97;;
68176;SDS011;56478;50.982;7.032;2024-03-22T11:08:49;8.10;;;6.22;;
68176;SDS011;56478;50.982;7.032;2024-03-22T11:11:19;9.48;;;5.82;;
68176;SDS011;56478;50.982;7.032;2024-03-22T11:13:47;11.13;;;6.07;;
68176;SDS011;56478;50.982;7.032;2024-03-22T11:16:14;10.95;;;6.47;;
68176;SDS011;56478;50.982;7.032;2024-03-22T11:18:40;10.95;;;6.28;;
68176;SDS011;56478;50.982;7.032;2024-03-22T11:21:06;11.88;;;6.70;;
68176;SDS011;56478;50.982;7.032;2024-03-22T11:23:34;12.40;;;6.10;;
68176;SDS011;56478;50.982;7.032;2024-03-22T11:26:01;10.85;;;6.53;;
68176;SDS011;56478;50.982;7.032;2024-03-22T11:28:27;7.97;;;6.35;;
68176;SDS011;56478;50.982;7.032;2024-03-22T11:30:53;8.50;;;6.55;;
68176;SDS011;56478;50.982;7.032;2024-03-22T11:33:19;11.20;;;6.78;;
68176;SDS011;56478;50.982;7.032;2024-03-22T11:35:44;12.50;;;7.40;;
68176;SDS011;56478;50.982;7.032;2024-03-22T11:38:10;8.23;;;6.80;;
68176;SDS011;56478;50.982;7.032;2024-03-22T11:40:35;11.70;;;7.05;;
68176;SDS011;56478;50.982;7.032;2024-03-22T11:43:01;10.63;;;7.55;;
68176;SDS011;56478;50.982;7.032;2024-03-22T11:45:28;12.73;;;7.55;;
68176;SDS011;56478;50.982;7.032;2024-03-22T11:47:56;11.70;;;7.93;;
68176;SDS011;56478;50.982;7.032;2024-03-22T11:50:22;13.18;;;7.57;;
68176;SDS011;56478;50.982;7.032;2024-03-22T11:52:47;9.80;;;8.10;;
68176;SDS011;56478;50.982;7.032;2024-03-22T11:55:14;13.45;;;7.88;;
68176;SDS011;56478;50.982;7.032;2024-03-22T11:57:40;12.85;;;7.80;;
68176;SDS011;56478;50.982;7.032;2024-03-22T12:00:06;12.10;;;7.88;;
68176;SDS011;56478;50.982;7.032;2024-03-22T12:02:37;10.05;;;7.68;;
68176;SDS011;56478;50.982;7.032;2024-03-22T12:07:29;9.52;;;7.78;;
68176;SDS011;56478;50.982;7.032;2024-03-22T12:09:55;11.82;;;8.40;;
68176;SDS011;56478;50.982;7.032;2024-03-22T12:12:21;12.73;;;8.35;;
68176;SDS011;56478;50.982;7.032;2024-03-22T12:14:47;15.77;;;8.35;;
68176;SDS011;56478;50.982;7.032;2024-03-22T12:17:16;13.02;;;8.77;;
68176;SDS011;56478;50.982;7.032;2024-03-22T12:19:44;13.15;;;8.45;;
68176;SDS011;56478;50.982;7.032;2024-03-22T12:22:10;11.32;;;8.32;;
68176;SDS011;56478;50.982;7.032;2024-03-22T12:24:36;11.77;;;8.23;;
68176;SDS011;56478;50.982;7.032;2024-03-22T12:27:02;16.02;;;8.32;;
68176;SDS011;56478;50.982;7.032;2024-03-22T12:29:28;11.48;;;8.07;;
68176;SDS011;56478;50.982;7.032;2024-03-22T12:31:53;9.55;;;8.20;;
68176;SDS011;56478;50.982;7.032;2024-03-22T12:34:19;10.98;;;7.90;;
68176;SDS011;56478;50.982;7.032;2024-03-22T12:36:44;11.35;;;8.07;;
68176;SDS011;56478;50.982;7.032;2024-03-22T12:39:10;13.88;;;7.57;;
68176;SDS011;56478;50.982;7.032;2024-03-22T12:41:36;8.25;;;7.22;;
68176;SDS011;56478;50.982;7.032;2024-03-22T12:44:02;10.80;;;7.60;;
68176;SDS011;56478;50.982;7.032;2024-03-22T12:46:28;11.55;;;7.70;;
68176;SDS011;56478;50.982;7.032;2024-03-22T12:48:54;18.27;;;8.27;;
68176;SDS011;56478;50.982;7.032;2024-03-22T12:51:20;12.75;;;8.52;;
68176;SDS011;56478;50.982;7.032;2024-03-22T12:53:46;11.60;;;7.90;;
68176;SDS011;56478;50.982;7.032;2024-03-22T12:56:12;13.00;;;7.97;;
68176;SDS011;56478;50.982;7.032;2024-03-22T12:58:37;12.95;;;9.13;;
68176;SDS011;56478;50.982;7.032;2024-03-22T13:01:04;18.75;;;9.00;;
68176;SDS011;56478;50.982;7.032;2024-03-22T13:03:31;16.20;;;8.77;;
68176;SDS011;56478;50.982;7.032;2024-03-22T13:05:57;14.98;;;8.70;;
68176;SDS011;56478;50.982;7.032;2024-03-22T13:08:23;13.85;;;9.00;;
68176;SDS011;56478;50.982;7.032;2024-03-22T13:10:49;14.82;;;9.40;;
68176;SDS011;56478;50.982;7.032;2024-03-22T13:13:15;13.27;;;8.77;;
68176;SDS011;56478;50.982;7.032;2024-03-22T13:15:44;12.55;;;8.77;;
68176;SDS011;56478;50.982;7.032;2024-03-22T13:18:12;15.07;;;8.32;;
68176;SDS011;56478;50.982;7.032;2024-03-22T13:20:38;15.30;;;8.40;;
68176;SDS011;56478;50.982;7.032;2024-03-22T13:23:04;13.02;;;8.70;;
68176;SDS011;56478;50.982;7.032;2024-03-22T13:25:34;10.65;;;8.27;;
68176;SDS011;56478;50.982;7.032;2024-03-22T13:28:01;13.02;;;8.57;;
68176;SDS011;56478;50.982;7.032;2024-03-22T13:30:32;13.00;;;9.45;;
68176;SDS011;56478;50.982;7.032;2024-03-22T13:33:00;14.18;;;9.32;;
68176;SDS011;56478;50.982;7.032;2024-03-22T13:35:26;12.68;;;9.45;;
68176;SDS011;56478;50.982;7.032;2024-03-22T13:37:51;13.85;;;9.10;;
68176;SDS011;56478;50.982;7.032;2024-03-22T13:40:17;17.52;;;10.02;;
68176;SDS011;56478;50.982;7.032;2024-03-22T13:42:43;13.80;;;9.65;;
68176;SDS011;56478;50.982;7.032;2024-03-22T13:45:08;13.60;;;9.25;;
68176;SDS011;56478;50.982;7.032;2024-03-22T13:47:34;12.88;;;9.27;;
68176;SDS011;56478;50.982;7.032;2024-03-22T13:50:03;12.30;;;9.10;;
68176;SDS011;56478;50.982;7.032;2024-03-22T13:52:29;14.32;;;9.45;;
68176;SDS011;56478;50.982;7.032;2024-03-22T13:54:55;13.43;;;9.77;;
68176;SDS011;56478;50.982;7.032;2024-03-22T13:57:21;16.33;;;10.80;;
68176;SDS011;56478;50.982;7.032;2024-03-22T13:59:46;14.07;;;11.07;;
68176;SDS011;56478;50.982;7.032;2024-03-22T14:02:12;16.33;;;10.25;;
68176;SDS011;56478;50.982;7.032;2024-03-22T14:04:38;14.05;;;11.00;;
68176;SDS011;56478;50.982;7.032;2024-03-22T14:07:03;12.52;;;10.98;;
68176;SDS011;56478;50.982;7.032;2024-03-22T14:09:30;14.38;;;9.68;;
68176;SDS011;56478;50.982;7.032;2024-03-22T14:11:56;12.55;;;9.98;;
68176;SDS011;56478;50.982;7.032;2024-03-22T14:14:22;13.75;;;9.88;;
68176;SDS011;56478;50.982;7.032;2024-03-22T14:16:49;15.15;;;10.10;;
68176;SDS011;56478;50.982;7.032;2024-03-22T14:19:14;13.05;;;9.70;;
68176;SDS011;56478;50.982;7.032;2024-03-22T14:21:40;15.32;;;10.80;;
68176;SDS011;56478;50.982;7.032;2024-03-22T14:24:06;12.52;;;10.32;;
68176;SDS011;56478;50.982;7.032;2024-03-22T14:26:32;15.20;;;10.55;;
68176;SDS011;56478;50.982;7.032;2024-03-22T14:28:58;14.48;;;11.15;;
68176;SDS011;56478;50.982;7.032;2024-03-22T14:31:24;14.68;;;10.90;;
68176;SDS011;56478;50.982;7.032;2024-03-22T14:33:49;16.05;;;11.65;;